createdAt,value
2023-05-20T00:00:10.059Z,23.31
2023-05-20T00:02:43.449Z,23.30
2023-05-20T00:05:16.305Z,23.29
2023-05-20T00:07:49.252Z,23.28
2023-05-20T00:10:22.327Z,23.27
2023-05-20T00:12:55.336Z,23.26
2023-05-20T00:15:28.443Z,23.25
2023-05-20T00:18:02.439Z,23.24
2023-05-20T00:20:35.374Z,23.23
2023-05-20T00:23:07.997Z,23.22
2023-05-20T00:25:44.050Z,23.21
2023-05-20T00:28:17.343Z,23.20
2023-05-20T00:30:51.378Z,23.20
2023-05-20T00:33:24.418Z,23.19
2023-05-20T00:35:57.395Z,23.18
2023-05-20T00:38:30.373Z,23.17
2023-05-20T00:41:03.333Z,23.16
2023-05-20T00:43:36.504Z,23.16
2023-05-20T00:46:10.556Z,23.15
2023-05-20T00:48:44.507Z,23.14
2023-05-20T00:51:17.322Z,23.13
2023-05-20T00:53:50.324Z,23.13
2023-05-20T00:56:23.446Z,23.12
2023-05-20T00:58:56.695Z,23.12
2023-05-20T01:01:30.531Z,23.11
2023-05-20T01:04:04.253Z,23.11
2023-05-20T01:06:37.454Z,23.10
2023-05-20T01:09:10.570Z,23.09
2023-05-20T01:11:44.448Z,23.09
2023-05-20T01:14:17.449Z,23.08
2023-05-20T01:16:50.367Z,23.07
2023-05-20T01:19:23.538Z,23.07
2023-05-20T01:21:56.397Z,23.06
2023-05-20T01:24:29.567Z,23.05
2023-05-20T01:27:03.243Z,23.05
2023-05-20T01:29:36.440Z,23.04
2023-05-20T01:32:09.452Z,23.03
2023-05-20T01:34:42.634Z,23.03
2023-05-20T01:37:16.461Z,23.02
2023-05-20T01:39:49.377Z,23.01
2023-05-20T01:42:22.516Z,23.00
2023-05-20T01:44:55.444Z,23.00
2023-05-20T01:47:28.633Z,22.99
2023-05-20T01:50:02.668Z,22.98
2023-05-20T01:52:36.454Z,22.98
2023-05-20T01:55:09.527Z,22.97
2023-05-20T01:57:42.617Z,22.96
2023-05-20T02:00:16.410Z,22.95
2023-05-20T02:02:49.541Z,22.95
2023-05-20T02:05:22.454Z,22.94
2023-05-20T02:07:55.157Z,22.93
2023-05-20T02:10:28.513Z,22.93
2023-05-20T02:13:01.576Z,22.92
2023-05-20T02:15:34.960Z,22.92
2023-05-20T02:18:08.325Z,22.91
2023-05-20T02:20:41.580Z,22.90
2023-05-20T02:23:14.501Z,22.90
2023-05-20T02:25:47.479Z,22.89
2023-05-20T02:28:20.635Z,22.88
2023-05-20T02:30:54.503Z,22.88
2023-05-20T02:33:27.643Z,22.87
2023-05-20T02:36:01.420Z,22.86
2023-05-20T02:38:34.551Z,22.86
2023-05-20T02:41:21.279Z,22.85
2023-05-20T02:43:54.497Z,22.85
2023-05-20T02:46:27.512Z,22.84
2023-05-20T02:49:00.436Z,22.83
2023-05-20T02:51:33.587Z,22.83
2023-05-20T02:54:06.503Z,22.82
2023-05-20T02:56:39.445Z,22.82
2023-05-20T02:59:12.573Z,22.81
2023-05-20T03:01:45.472Z,22.80
2023-05-20T03:04:18.548Z,22.80
2023-05-20T03:06:51.609Z,22.79
2023-05-20T03:09:24.544Z,22.79
2023-05-20T03:11:57.508Z,22.78
2023-05-20T03:14:36.504Z,22.78
2023-05-20T03:17:09.620Z,22.77
2023-05-20T03:19:42.713Z,22.77
2023-05-20T03:22:16.702Z,22.76
2023-05-20T03:24:49.657Z,22.76
2023-05-20T03:27:22.389Z,22.75
2023-05-20T03:29:55.535Z,22.75
2023-05-20T03:32:28.916Z,22.74
2023-05-20T03:35:02.492Z,22.74
2023-05-20T03:37:35.486Z,22.73
2023-05-20T03:40:08.722Z,22.73
2023-05-20T03:42:41.440Z,22.72
2023-05-20T03:45:14.624Z,22.72
2023-05-20T03:47:47.706Z,22.71
2023-05-20T03:50:20.663Z,22.71
2023-05-20T03:52:53.724Z,22.70
2023-05-20T03:55:26.671Z,22.70
2023-05-20T03:57:59.606Z,22.69
2023-05-20T04:00:32.386Z,22.69
2023-05-20T04:03:05.392Z,22.69
2023-05-20T04:05:38.617Z,22.68
2023-05-20T04:08:11.746Z,22.68
2023-05-20T04:10:44.615Z,22.67
2023-05-20T04:13:17.713Z,22.67
2023-05-20T04:15:50.846Z,22.67
2023-05-20T04:18:24.697Z,22.66
2023-05-20T04:20:57.359Z,22.66
2023-05-20T04:23:30.764Z,22.65
2023-05-20T04:26:03.602Z,22.65
2023-05-20T04:28:36.685Z,22.65
2023-05-20T04:31:09.627Z,22.64
2023-05-20T04:33:42.674Z,22.64
2023-05-20T04:36:15.663Z,22.63
2023-05-20T04:38:48.496Z,22.63
2023-05-20T04:41:21.398Z,22.62
2023-05-20T04:43:54.789Z,22.62
2023-05-20T04:46:27.652Z,22.61
2023-05-20T04:49:00.663Z,22.61
2023-05-20T04:51:33.717Z,22.61
2023-05-20T04:54:06.776Z,22.61
2023-05-20T04:56:39.741Z,22.60
2023-05-20T04:59:12.753Z,22.60
2023-05-20T05:01:45.767Z,22.60
2023-05-20T05:04:18.446Z,22.59
2023-05-20T05:06:55.380Z,22.59
2023-05-20T05:09:28.743Z,22.59
2023-05-20T05:12:01.705Z,22.59
2023-05-20T05:14:34.734Z,22.59
2023-05-20T05:17:07.708Z,22.58
2023-05-20T05:19:40.530Z,22.58
2023-05-20T05:22:13.592Z,22.58
2023-05-20T05:24:46.874Z,22.58
2023-05-20T05:27:19.770Z,22.57
2023-05-20T05:29:52.765Z,22.57
2023-05-20T05:32:25.911Z,22.57
2023-05-20T05:34:58.867Z,22.57
2023-05-20T05:37:31.841Z,22.56
2023-05-20T05:40:04.730Z,22.56
2023-05-20T05:42:37.589Z,22.56
2023-05-20T05:45:10.667Z,22.56
2023-05-20T05:47:43.842Z,22.55
2023-05-20T05:50:16.654Z,22.55
2023-05-20T05:52:49.791Z,22.55
2023-05-20T05:55:22.631Z,22.54
2023-05-20T05:57:55.948Z,22.54
2023-05-20T06:00:29.892Z,22.54
2023-05-20T06:03:02.772Z,22.54
2023-05-20T06:05:36.051Z,22.54
2023-05-20T06:08:08.772Z,22.53
2023-05-20T06:10:41.932Z,22.53
2023-05-20T06:13:14.824Z,22.53
2023-05-20T06:15:47.681Z,22.53
2023-05-20T06:18:20.829Z,22.53
2023-05-20T06:20:53.870Z,22.53
2023-05-20T06:23:26.848Z,22.53
2023-05-20T06:25:59.901Z,22.52
2023-05-20T06:28:32.895Z,22.52
2023-05-20T06:31:05.910Z,22.52
2023-05-20T06:33:42.712Z,22.52
2023-05-20T06:36:15.633Z,22.52
2023-05-20T06:38:48.837Z,22.52
2023-05-20T06:41:21.884Z,22.52
2023-05-20T06:43:54.570Z,22.51
2023-05-20T06:46:27.884Z,22.51
2023-05-20T06:49:00.631Z,22.51
2023-05-20T06:51:33.959Z,22.51
2023-05-20T06:54:06.906Z,22.51
2023-05-20T06:56:39.730Z,22.51
2023-05-20T06:59:12.582Z,22.52
2023-05-20T07:01:45.763Z,22.52
2023-05-20T07:04:18.857Z,22.52
2023-05-20T07:06:52.137Z,22.52
2023-05-20T07:09:25.641Z,22.52
2023-05-20T07:11:58.742Z,22.52
2023-05-20T07:14:31.721Z,22.52
2023-05-20T07:17:04.786Z,22.52
2023-05-20T07:19:37.927Z,22.52
2023-05-20T07:22:10.620Z,22.52
2023-05-20T07:24:43.803Z,22.52
2023-05-20T07:27:17.836Z,22.52
2023-05-20T07:29:50.715Z,22.52
2023-05-20T07:32:23.930Z,22.52
2023-05-20T07:34:57.004Z,22.52
2023-05-20T07:37:29.894Z,22.52
2023-05-20T07:40:02.815Z,22.52
2023-05-20T07:42:35.860Z,22.52
2023-05-20T07:45:08.680Z,22.53
2023-05-20T07:47:41.780Z,22.53
2023-05-20T07:50:14.670Z,22.53
2023-05-20T07:52:55.880Z,22.53
2023-05-20T07:55:21.042Z,22.53
2023-05-20T07:57:54.034Z,22.53
2023-05-20T08:00:26.979Z,22.54
2023-05-20T08:03:00.037Z,22.54
2023-05-20T08:05:33.134Z,22.54
2023-05-20T08:08:05.685Z,22.55
2023-05-20T08:10:38.805Z,22.55
2023-05-20T08:13:11.700Z,22.56
2023-05-20T08:15:44.902Z,22.56
2023-05-20T08:18:17.819Z,22.57
2023-05-20T08:20:50.823Z,22.56
2023-05-20T08:23:23.803Z,22.56
2023-05-20T08:25:56.877Z,22.54
2023-05-20T08:28:30.082Z,22.53
2023-05-20T08:31:03.012Z,22.53
2023-05-20T08:33:36.219Z,22.53
2023-05-20T08:36:10.060Z,22.53
2023-05-20T08:38:42.860Z,22.54
2023-05-20T08:41:15.988Z,22.55
2023-05-20T08:43:49.143Z,22.56
2023-05-20T08:46:22.162Z,22.57
2023-05-20T08:48:55.299Z,22.59
2023-05-20T08:51:29.161Z,22.60
2023-05-20T08:54:02.149Z,22.62
2023-05-20T08:56:35.067Z,22.64
2023-05-20T08:59:09.081Z,22.66
2023-05-20T09:01:42.056Z,22.68
2023-05-20T09:04:15.040Z,22.69
2023-05-20T09:06:48.123Z,22.71
2023-05-20T09:09:21.049Z,22.73
2023-05-20T09:11:55.265Z,22.75
2023-05-20T09:14:28.981Z,22.76
2023-05-20T09:17:01.905Z,22.78
2023-05-20T09:19:35.181Z,22.80
2023-05-20T09:22:07.950Z,22.82
2023-05-20T09:24:41.123Z,22.84
2023-05-20T09:27:14.032Z,22.85
2023-05-20T09:29:47.123Z,22.87
2023-05-20T09:32:20.058Z,22.88
2023-05-20T09:34:53.135Z,22.90
2023-05-20T09:37:26.057Z,22.91
2023-05-20T09:39:59.091Z,22.93
2023-05-20T09:42:31.953Z,22.94
2023-05-20T09:45:07.920Z,22.95
2023-05-20T09:47:41.270Z,22.97
2023-05-20T09:50:14.121Z,22.98
2023-05-20T09:52:46.822Z,23.00
2023-05-20T09:55:20.168Z,23.02
2023-05-20T09:57:52.950Z,23.03
2023-05-20T10:00:26.190Z,23.05
2023-05-20T10:02:59.307Z,23.07
2023-05-20T10:05:32.334Z,23.08
2023-05-20T10:08:05.199Z,23.10
2023-05-20T10:10:38.214Z,23.11
2023-05-20T10:13:11.172Z,23.12
2023-05-20T10:15:44.276Z,23.13
2023-05-20T10:18:17.121Z,23.14
2023-05-20T10:20:50.211Z,23.15
2023-05-20T10:23:23.365Z,23.16
2023-05-20T10:25:57.078Z,23.17
2023-05-20T10:28:30.045Z,23.18
2023-05-20T10:31:03.386Z,23.19
2023-05-20T10:33:37.383Z,23.20
2023-05-20T10:36:11.176Z,23.21
2023-05-20T10:38:44.269Z,23.22
2023-05-20T10:41:17.303Z,23.24
2023-05-20T10:43:53.177Z,23.25
2023-05-20T10:46:33.975Z,23.25
2023-05-20T10:49:00.366Z,23.27
2023-05-20T10:51:33.333Z,23.28
2023-05-20T10:54:06.214Z,23.29
2023-05-20T10:56:39.176Z,23.30
2023-05-20T10:59:12.063Z,23.31
2023-05-20T11:01:45.273Z,23.32
2023-05-20T11:04:18.232Z,23.33
2023-05-20T11:06:51.347Z,23.34
2023-05-20T11:09:27.389Z,23.35
2023-05-20T11:12:01.346Z,23.36
2023-05-20T11:14:34.334Z,23.37
2023-05-20T11:17:07.550Z,23.39
2023-05-20T11:19:41.315Z,23.40
2023-05-20T11:22:14.382Z,23.41
2023-05-20T11:24:47.330Z,23.42
2023-05-20T11:27:19.956Z,23.43
2023-05-20T11:29:53.309Z,23.44
2023-05-20T11:32:26.548Z,23.45
2023-05-20T11:34:59.288Z,23.46
2023-05-20T11:37:32.276Z,23.48
2023-05-20T11:40:05.158Z,23.49
2023-05-20T11:42:38.138Z,23.50
2023-05-20T11:45:11.194Z,23.51
2023-05-20T11:47:44.183Z,23.52
2023-05-20T11:50:17.082Z,23.53
2023-05-20T11:52:50.229Z,23.53
2023-05-20T11:55:23.007Z,23.54
2023-05-20T11:57:56.125Z,23.54
2023-05-20T12:00:39.575Z,23.54
2023-05-20T12:03:02.459Z,23.55
2023-05-20T12:05:35.305Z,23.56
2023-05-20T12:08:08.242Z,23.56
2023-05-20T12:10:41.434Z,23.57
2023-05-20T12:13:14.171Z,23.57
2023-05-20T12:15:47.447Z,23.58
2023-05-20T12:18:20.399Z,23.59
2023-05-20T12:20:53.360Z,23.59
2023-05-20T12:23:26.296Z,23.60
2023-05-20T12:25:59.469Z,23.61
2023-05-20T12:28:32.367Z,23.61
2023-05-20T12:31:05.429Z,23.62
2023-05-20T12:33:38.540Z,23.62
2023-05-20T12:36:12.386Z,23.63
2023-05-20T12:38:45.440Z,23.64
2023-05-20T12:41:18.216Z,23.65
2023-05-20T12:43:51.199Z,23.65
2023-05-20T12:46:24.213Z,23.66
2023-05-20T12:48:57.594Z,23.66
2023-05-20T12:51:30.224Z,23.67
2023-05-20T12:54:03.483Z,23.68
2023-05-20T12:56:36.205Z,23.68
2023-05-20T12:59:09.431Z,23.69
2023-05-20T13:01:42.249Z,23.70
2023-05-20T13:04:15.165Z,23.71
2023-05-20T13:06:48.280Z,23.72
2023-05-20T13:09:21.127Z,23.73
2023-05-20T13:11:54.234Z,23.74
2023-05-20T13:14:27.368Z,23.75
2023-05-20T13:17:00.456Z,23.76
2023-05-20T13:19:33.572Z,23.77
2023-05-20T13:22:06.316Z,23.77
2023-05-20T13:24:39.263Z,23.78
2023-05-20T13:27:13.239Z,23.79
2023-05-20T13:29:46.313Z,23.80
2023-05-20T13:32:19.664Z,23.81
2023-05-20T13:34:53.377Z,23.82
2023-05-20T13:37:26.147Z,23.83
2023-05-20T13:39:59.555Z,23.84
2023-05-20T13:42:32.283Z,23.85
2023-05-20T13:45:05.248Z,23.86
2023-05-20T13:47:38.327Z,23.87
2023-05-20T13:50:11.504Z,23.88
2023-05-20T13:52:44.541Z,23.88
2023-05-20T13:55:17.171Z,23.89
2023-05-20T13:57:50.642Z,23.90
2023-05-20T14:00:24.428Z,23.91
2023-05-20T14:02:57.730Z,23.92
2023-05-20T14:05:30.520Z,23.94
2023-05-20T14:08:06.436Z,23.95
2023-05-20T14:10:39.359Z,23.97
2023-05-20T14:13:12.347Z,23.98
2023-05-20T14:15:45.307Z,23.99
2023-05-20T14:18:18.356Z,24.00
2023-05-20T14:20:51.374Z,24.01
2023-05-20T14:23:24.204Z,24.01
2023-05-20T14:25:57.236Z,24.02
2023-05-20T14:28:30.480Z,24.03
2023-05-20T14:31:03.266Z,24.04
2023-05-20T14:33:36.400Z,24.04
2023-05-20T14:36:09.269Z,24.06
2023-05-20T14:38:42.375Z,24.07
2023-05-20T14:41:15.736Z,24.07
2023-05-20T14:43:49.509Z,24.07
2023-05-20T14:46:22.711Z,24.07
2023-05-20T14:48:55.558Z,24.08
2023-05-20T14:51:28.534Z,24.08
2023-05-20T14:54:01.344Z,24.09
2023-05-20T14:56:34.567Z,24.10
2023-05-20T14:59:07.518Z,24.11
2023-05-20T15:01:40.570Z,24.12
2023-05-20T15:04:15.939Z,24.13
2023-05-20T15:06:54.487Z,24.14
2023-05-20T15:09:27.282Z,24.15
2023-05-20T15:12:00.640Z,24.16
2023-05-20T15:14:36.378Z,24.16
2023-05-20T15:17:09.599Z,24.16
2023-05-20T15:19:42.607Z,24.16
2023-05-20T15:22:15.648Z,24.15
2023-05-20T15:24:48.587Z,24.15
2023-05-20T15:27:22.397Z,24.15
2023-05-20T15:29:55.601Z,24.15
2023-05-20T15:32:28.663Z,24.15
2023-05-20T15:35:02.622Z,24.14
2023-05-20T15:37:34.346Z,24.14
2023-05-20T15:40:10.199Z,24.13
2023-05-20T15:42:43.758Z,24.13
2023-05-20T15:45:16.439Z,24.12
2023-05-20T15:47:49.603Z,24.12
2023-05-20T15:50:22.545Z,24.11
2023-05-20T15:52:55.608Z,24.11
2023-05-20T15:55:28.339Z,24.11
2023-05-20T15:58:01.661Z,24.11
2023-05-20T16:00:34.979Z,24.11
2023-05-20T16:03:07.457Z,24.12
2023-05-20T16:05:40.565Z,24.13
2023-05-20T16:08:13.525Z,24.13
2023-05-20T16:10:46.719Z,24.14
2023-05-20T16:13:19.525Z,24.15
2023-05-20T16:15:52.716Z,24.15
2023-05-20T16:18:25.707Z,24.15
2023-05-20T16:20:58.565Z,24.15
2023-05-20T16:23:31.709Z,24.15
2023-05-20T16:26:04.692Z,24.14
2023-05-20T16:28:37.641Z,24.13
2023-05-20T16:31:10.670Z,24.13
2023-05-20T16:33:43.672Z,24.12
2023-05-20T16:36:16.750Z,24.11
2023-05-20T16:38:49.788Z,24.11
2023-05-20T16:41:22.418Z,24.10
2023-05-20T16:43:55.894Z,24.10
2023-05-20T16:46:29.767Z,24.08
2023-05-20T16:49:02.410Z,24.08
2023-05-20T16:51:35.679Z,24.06
2023-05-20T16:54:08.583Z,24.05
2023-05-20T16:56:41.441Z,24.03
2023-05-20T16:59:14.762Z,24.02
2023-05-20T17:01:47.682Z,24.01
2023-05-20T17:04:20.840Z,24.01
2023-05-20T17:06:53.452Z,24.00
2023-05-20T17:09:26.638Z,24.00
2023-05-20T17:11:59.583Z,23.99
2023-05-20T17:14:32.442Z,23.99
2023-05-20T17:17:05.613Z,23.99
2023-05-20T17:19:38.464Z,23.99
2023-05-20T17:22:11.766Z,23.99
2023-05-20T17:24:44.614Z,23.98
2023-05-20T17:27:17.491Z,23.99
2023-05-20T17:29:50.598Z,23.99
2023-05-20T17:32:23.833Z,23.98
2023-05-20T17:34:56.962Z,23.98
2023-05-20T17:37:30.740Z,23.98
2023-05-20T17:40:03.524Z,23.98
2023-05-20T17:42:36.480Z,23.97
2023-05-20T17:45:09.505Z,23.97
2023-05-20T17:47:42.487Z,23.97
2023-05-20T17:50:15.502Z,23.96
2023-05-20T17:52:48.702Z,23.95
2023-05-20T17:55:21.717Z,23.95
2023-05-20T17:57:54.718Z,23.94
2023-05-20T18:00:27.675Z,23.94
2023-05-20T18:03:00.923Z,23.93
2023-05-20T18:05:33.749Z,23.93
2023-05-20T18:08:06.961Z,23.92
2023-05-20T18:10:39.792Z,23.91
2023-05-20T18:13:13.570Z,23.90
2023-05-20T18:15:47.765Z,23.90
2023-05-20T18:18:34.555Z,23.89
2023-05-20T18:21:15.451Z,23.88
2023-05-20T18:23:48.601Z,23.87
2023-05-20T18:26:21.762Z,23.86
2023-05-20T18:28:54.556Z,23.85
2023-05-20T18:31:27.772Z,23.84
2023-05-20T18:34:00.766Z,23.83
2023-05-20T18:36:33.783Z,23.82
2023-05-20T18:39:06.836Z,23.81
2023-05-20T18:44:13.824Z,23.79
2023-05-20T18:46:46.597Z,23.78
2023-05-20T18:49:20.712Z,23.77
2023-05-20T18:51:53.982Z,23.76
2023-05-20T18:54:26.781Z,23.75
2023-05-20T18:56:59.653Z,23.74
2023-05-20T18:59:32.876Z,23.73
2023-05-20T19:02:05.576Z,23.73
2023-05-20T19:04:39.115Z,23.71
2023-05-20T19:07:12.939Z,23.71
2023-05-20T19:09:45.625Z,23.70
2023-05-20T19:12:18.788Z,23.69
2023-05-20T19:14:51.748Z,23.68
2023-05-20T19:17:24.801Z,23.67
2023-05-20T19:19:57.840Z,23.66
2023-05-20T19:22:30.715Z,23.65
2023-05-20T19:25:03.635Z,23.65
2023-05-20T19:27:36.708Z,23.63
2023-05-20T19:30:12.872Z,23.63
2023-05-20T19:32:45.716Z,23.62
2023-05-20T19:35:32.822Z,23.61
2023-05-20T19:38:05.647Z,23.60
2023-05-20T19:40:38.807Z,23.59
2023-05-20T19:43:11.964Z,23.58
2023-05-20T19:45:44.809Z,23.57
2023-05-20T19:48:19.961Z,23.56
2023-05-20T19:50:51.242Z,23.56
2023-05-20T19:53:24.962Z,23.55
2023-05-20T19:55:58.084Z,23.54
2023-05-20T19:58:31.103Z,23.53
2023-05-20T20:01:04.699Z,23.52
2023-05-20T20:03:37.785Z,23.51
2023-05-20T20:06:10.943Z,23.50
2023-05-20T20:08:43.744Z,23.50
2023-05-20T20:11:17.093Z,23.49
2023-05-20T20:13:49.932Z,23.48
2023-05-20T20:16:23.915Z,23.46
2023-05-20T20:18:57.024Z,23.46
2023-05-20T20:21:33.503Z,23.45
2023-05-20T20:24:06.752Z,23.44
2023-05-20T20:26:39.899Z,23.43
2023-05-20T20:29:13.339Z,23.42
2023-05-20T20:31:46.744Z,23.42
2023-05-20T20:34:19.747Z,23.42
2023-05-20T20:36:53.215Z,23.41
2023-05-20T20:39:28.052Z,23.41
2023-05-20T20:42:08.491Z,23.41
2023-05-20T20:44:42.161Z,23.41
2023-05-20T20:47:18.690Z,23.41
2023-05-20T20:49:53.112Z,23.41
2023-05-20T20:52:25.940Z,23.41
2023-05-20T20:54:59.073Z,23.40
2023-05-20T20:57:31.973Z,23.40
2023-05-20T21:00:09.174Z,23.40
2023-05-20T21:02:42.172Z,23.40
2023-05-20T21:05:15.146Z,23.40
2023-05-20T21:07:49.107Z,23.40
2023-05-20T21:10:22.131Z,23.40
2023-05-20T21:12:56.283Z,23.39
2023-05-20T21:15:43.968Z,23.39
2023-05-20T21:18:32.202Z,23.39
2023-05-20T21:21:08.898Z,23.39
2023-05-20T21:23:43.280Z,23.38
2023-05-20T21:26:17.272Z,23.38
2023-05-20T21:28:50.851Z,23.38
2023-05-20T21:31:24.220Z,23.38
2023-05-20T21:33:57.389Z,23.37
2023-05-20T21:36:31.152Z,23.37
2023-05-20T21:39:04.097Z,23.37
2023-05-20T21:41:37.985Z,23.37
2023-05-20T21:44:12.180Z,23.37
2023-05-20T21:46:45.196Z,23.37
2023-05-20T21:49:18.259Z,23.37
2023-05-20T21:51:51.096Z,23.37
2023-05-20T21:54:24.317Z,23.37
2023-05-20T21:56:58.109Z,23.37
2023-05-20T21:59:32.198Z,23.38
2023-05-20T22:02:05.289Z,23.38
2023-05-20T22:04:37.983Z,23.38
2023-05-20T22:07:11.140Z,23.38
2023-05-20T22:09:44.033Z,23.38
2023-05-20T22:12:17.200Z,23.38
2023-05-20T22:14:50.142Z,23.38
2023-05-20T22:17:23.162Z,23.38
2023-05-20T22:19:56.276Z,23.39
2023-05-20T22:22:29.199Z,23.39
2023-05-20T22:25:02.496Z,23.39
2023-05-20T22:27:36.172Z,23.39
2023-05-20T22:30:09.453Z,23.39
2023-05-20T22:32:43.332Z,23.39
2023-05-20T22:35:16.233Z,23.39
2023-05-20T22:37:49.166Z,23.39
2023-05-20T22:40:22.249Z,23.39
2023-05-20T22:42:56.462Z,23.39
2023-05-20T22:45:30.345Z,23.40
2023-05-20T22:48:03.282Z,23.40
2023-05-20T22:50:36.248Z,23.40
2023-05-20T22:53:10.343Z,23.40
2023-05-20T22:55:43.224Z,23.40
2023-05-20T22:58:17.062Z,23.40
2023-05-20T23:00:50.192Z,23.40
2023-05-20T23:03:23.091Z,23.41
2023-05-20T23:05:55.965Z,23.41
2023-05-20T23:08:30.170Z,23.41
2023-05-20T23:11:03.132Z,23.41
2023-05-20T23:13:36.236Z,23.41
2023-05-20T23:16:09.334Z,23.42
2023-05-20T23:18:48.272Z,23.42
2023-05-20T23:21:25.188Z,23.42
2023-05-20T23:23:59.486Z,23.42
2023-05-20T23:26:33.360Z,23.42
2023-05-20T23:29:06.461Z,23.43
2023-05-20T23:31:40.502Z,23.43
2023-05-20T23:34:14.614Z,23.43
2023-05-20T23:36:48.354Z,23.43
2023-05-20T23:39:21.200Z,23.43
2023-05-20T23:41:54.257Z,23.43
2023-05-20T23:44:27.163Z,23.44
2023-05-20T23:47:00.576Z,23.44
2023-05-20T23:49:34.178Z,23.44
2023-05-20T23:52:07.450Z,23.44
2023-05-20T23:54:41.213Z,23.44
2023-05-20T23:57:14.351Z,23.44
2023-05-20T23:59:47.375Z,23.44
